Time;durP1;ratioP1;P1;durP2;ratioP2;P2;SDS_P1;SDS_P2;PMS_P1;PMS_P2;Temp;Humidity;BMP_temperature;BMP_pressure;BME280_temperature;BME280_humidity;BME280_pressure;Samples;Min_cycle;Max_cycle;Signal;HPM_P1;HPM_P2
2021/01/23 00:00:12;;;;;;;;;;;;;;;;;;5075052;28;1969;-70
2021/01/23 00:02:38;;;;;;;;;;;;;;;;;;5076001;28;860;-73
2021/01/23 00:05:03;;;;;;;;;;;;;;;;;;5075850;28;1313;-75
2021/01/23 00:07:29;;;;;;;;;;;;;;;;;;5074377;28;924;-75
2021/01/23 00:09:54;;;;;;;;;;;;;;;;;;5075512;28;999;-72
2021/01/23 00:12:19;;;;;;;;;;;;;;;;;;5075772;28;917;-73
2021/01/23 00:14:45;;;;;;;;;;;;;;;;;;5075416;28;1424;-74
2021/01/23 00:17:10;;;;;;;;;;;;;;;;;;5075377;28;1050;-74
2021/01/23 00:19:35;;;;;;;;;;;;;;;;;;5075344;28;1957;-74
2021/01/23 00:22:00;;;;;;;;;;;;;;;;;;5075194;28;871;-72
2021/01/23 00:24:27;;;;;;;;;;;;;;;;;;5074037;28;1439;-72
2021/01/23 00:26:52;;;;;;;;;;;;;;;;;;5075250;28;1460;-71
2021/01/23 00:29:17;;;;;;;;;;;;;;;;;;5075407;28;876;-75
2021/01/23 00:31:42;;;;;;;;;;;;;;;;;;5075060;28;848;-77
2021/01/23 00:34:09;;;;;;;;;;;;;;;;;;5075255;28;853;-76
2021/01/23 00:36:34;;;;;;;;;;;;;;;;;;5073471;28;1321;-76
2021/01/23 00:38:59;;;;;;;;;;;;;;;;;;5075206;28;838;-75
2021/01/23 00:41:26;;;;;;;;;;;;;;;;;;5075044;28;1953;-73
2021/01/23 00:43:52;;;;;;;;;;;;;;;;;;5073863;28;885;-77
2021/01/23 00:46:17;;;;;;;;;;;;;;;;;;5073482;28;1365;-76
2021/01/23 00:48:42;;;;;;;;;;;;;;;;;;5073525;28;876;-75
2021/01/23 00:51:07;;;;;;;;;;;;;;;;;;5074570;28;898;-77
2021/01/23 00:53:33;;;;;;;;;;;;;;;;;;5074854;28;881;-71
2021/01/23 00:55:58;;;;;;;;;;;;;;;;;;5074682;28;1396;-75
2021/01/23 00:58:23;;;;;;;;;;;;;;;;;;5074710;28;849;-74
2021/01/23 01:00:48;;;;;;;;;;;;;;;;;;5074181;28;1897;-74
2021/01/23 01:03:14;;;;;;;;;;;;;;;;;;5074713;28;782;-73
2021/01/23 01:05:39;;;;;;;;;;;;;;;;;;5074575;28;1435;-74
2021/01/23 01:08:04;;;;;;;;;;;;;;;;;;5073162;28;1526;-72
2021/01/23 01:10:29;;;;;;;;;;;;;;;;;;5074430;28;750;-72
2021/01/23 01:12:55;;;;;;;;;;;;;;;;;;5073084;28;1692;-72
2021/01/23 01:15:20;;;;;;;;;;;;;;;;;;5073059;28;1333;-74
2021/01/23 01:17:45;;;;;;;;;;;;;;;;;;5074013;28;1050;-73
2021/01/23 01:20:11;;;;;;;;;;;;;;;;;;5074141;28;1973;-73
2021/01/23 01:22:36;;;;;;;;;;;;;;;;;;5074247;28;925;-71
2021/01/23 01:25:01;;;;;;;;;;;;;;;;;;5073024;28;1345;-72
2021/01/23 01:27:26;;;;;;;;;;;;;;;;;;5073422;28;3243;-73
2021/01/23 01:29:52;;;;;;;;;;;;;;;;;;5073860;28;862;-72
2021/01/23 01:32:17;;;;;;;;;;;;;;;;;;5074164;28;868;-72
2021/01/23 01:34:42;;;;;;;;;;;;;;;;;;5073106;28;1322;-73
2021/01/23 01:37:08;;;;;;;;;;;;;;;;;;5072797;28;1622;-71
2021/01/23 01:39:33;;;;;;;;;;;;;;;;;;5073870;28;1957;-73
2021/01/23 01:42:00;;;;;;;;;;;;;;;;;;5073996;28;877;-74
2021/01/23 01:44:26;;;;;;;;;;;;;;;;;;5074324;28;828;-73
2021/01/23 01:46:51;;;;;;;;;;;;;;;;;;5073915;28;1432;-71
2021/01/23 01:49:18;;;;;;;;;;;;;;;;;;5072643;28;1170;-73
2021/01/23 01:51:43;;;;;;;;;;;;;;;;;;5073741;28;1229;-71
2021/01/23 01:54:08;;;;;;;;;;;;;;;;;;5074028;28;820;-71
2021/01/23 01:56:34;;;;;;;;;;;;;;;;;;5072623;28;1385;-72
2021/01/23 01:58:59;;;;;;;;;;;;;;;;;;5072631;28;1365;-74
2021/01/23 02:01:24;;;;;;;;;;;;;;;;;;5073964;28;1897;-74
2021/01/23 02:04:03;;;;;;;;;;;;;;;;;;5073344;28;1688;-72
2021/01/23 02:06:31;;;;;;;;;;;;;;;;;;5074446;28;1420;-72
2021/01/23 02:09:25;;;;;;;;;;;;;;;;;;5074372;28;888;-72
2021/01/23 02:12:09;;;;;;;;;;;;;;;;;;5072017;28;1122;-75
2021/01/23 02:14:41;;;;;;;;;;;;;;;;;;5074487;28;1313;-73
2021/01/23 02:17:08;;;;;;;;;;;;;;;;;;5074149;28;938;-74
2021/01/23 02:19:58;;;;;;;;;;;;;;;;;;5074408;28;1965;-72
2021/01/23 02:22:42;;;;;;;;;;;;;;;;;;5074219;28;841;-71
2021/01/23 02:25:08;;;;;;;;;;;;;;;;;;5078107;28;1301;-72
2021/01/23 02:27:52;;;;;;;;;;;;;;;;;;5078198;28;894;-71
2021/01/23 02:30:18;;;;;;;;;;;;;;;;;;5077889;28;880;-73
2021/01/23 02:32:44;;;;;;;;;;;;;;;;;;5076901;28;1365;-72
2021/01/23 02:35:10;;;;;;;;;;;;;;;;;;5077979;28;1339;-73
2021/01/23 02:37:35;;;;;;;;;;;;;;;;;;5076437;28;789;-71
2021/01/23 02:40:01;;;;;;;;;;;;;;;;;;5076646;28;1894;-73
2021/01/23 02:42:26;;;;;;;;;;;;;;;;;;5076769;28;1201;-72
2021/01/23 02:44:51;;;;;;;;;;;;;;;;;;5077874;28;1266;-71
2021/01/23 02:47:17;;;;;;;;;;;;;;;;;;5076257;28;1561;-72
2021/01/23 02:49:42;;;;;;;;;;;;;;;;;;5077645;28;861;-72
2021/01/23 02:52:07;;;;;;;;;;;;;;;;;;5077666;28;1103;-71
2021/01/23 02:54:37;;;;;;;;;;;;;;;;;;5077607;28;1266;-71
2021/01/23 02:57:04;;;;;;;;;;;;;;;;;;5077637;28;1043;-71
2021/01/23 02:59:30;;;;;;;;;;;;;;;;;;5077363;28;1894;-70
2021/01/23 03:01:55;;;;;;;;;;;;;;;;;;5077415;28;959;-72
2021/01/23 03:04:21;;;;;;;;;;;;;;;;;;5077528;28;902;-71
2021/01/23 03:06:47;;;;;;;;;;;;;;;;;;5077410;28;1372;-71
2021/01/23 03:09:16;;;;;;;;;;;;;;;;;;5077703;28;801;-73
2021/01/23 03:11:41;;;;;;;;;;;;;;;;;;5076853;28;801;-73
2021/01/23 03:14:07;;;;;;;;;;;;;;;;;;5076048;28;1202;-73
2021/01/23 03:16:32;;;;;;;;;;;;;;;;;;5075482;28;1400;-73
2021/01/23 03:18:57;;;;;;;;;;;;;;;;;;5077066;28;892;-72
2021/01/23 03:21:22;;;;;;;;;;;;;;;;;;5076489;28;1965;-74
2021/01/23 03:23:48;;;;;;;;;;;;;;;;;;5075947;28;1328;-73
2021/01/23 03:26:13;;;;;;;;;;;;;;;;;;5076982;28;1397;-73
2021/01/23 03:28:38;;;;;;;;;;;;;;;;;;5077007;28;793;-74
2021/01/23 03:31:03;;;;;;;;;;;;;;;;;;5076753;28;817;-72
2021/01/23 03:33:28;;;;;;;;;;;;;;;;;;5076741;28;872;-73
2021/01/23 03:35:54;;;;;;;;;;;;;;;;;;5075455;28;1396;-72
2021/01/23 03:38:19;;;;;;;;;;;;;;;;;;5076959;28;908;-72
2021/01/23 03:40:44;;;;;;;;;;;;;;;;;;5076585;28;1889;-73
2021/01/23 03:43:09;;;;;;;;;;;;;;;;;;5076891;28;996;-74
2021/01/23 03:45:35;;;;;;;;;;;;;;;;;;5075541;28;1358;-73
2021/01/23 03:48:00;;;;;;;;;;;;;;;;;;5075298;28;1363;-73
2021/01/23 03:50:25;;;;;;;;;;;;;;;;;;5076868;28;781;-72
2021/01/23 03:52:50;;;;;;;;;;;;;;;;;;5076865;28;849;-73
2021/01/23 03:55:16;;;;;;;;;;;;;;;;;;5075251;28;1318;-72
2021/01/23 03:57:41;;;;;;;;;;;;;;;;;;5076504;28;805;-72
2021/01/23 04:00:07;;;;;;;;;;;;;;;;;;5076754;28;1955;-72
2021/01/23 04:02:32;;;;;;;;;;;;;;;;;;5075175;28;1198;-72
2021/01/23 04:04:57;;;;;;;;;;;;;;;;;;5076621;28;1273;-72
2021/01/23 04:07:22;;;;;;;;;;;;;;;;;;5075286;28;889;-72
2021/01/23 04:09:47;;;;;;;;;;;;;;;;;;5076059;28;947;-72
2021/01/23 04:12:13;;;;;;;;;;;;;;;;;;5076159;28;892;-73
2021/01/23 04:14:38;;;;;;;;;;;;;;;;;;5076220;28;1270;-71
2021/01/23 04:17:03;;;;;;;;;;;;;;;;;;5076118;28;1001;-73
2021/01/23 04:19:28;;;;;;;;;;;;;;;;;;5076085;28;1954;-73
2021/01/23 04:21:54;;;;;;;;;;;;;;;;;;5076119;28;830;-72
2021/01/23 04:24:19;;;;;;;;;;;;;;;;;;5076242;28;956;-71
2021/01/23 04:26:44;;;;;;;;;;;;;;;;;;5074688;28;1417;-73
2021/01/23 04:29:09;;;;;;;;;;;;;;;;;;5075912;28;885;-73
2021/01/23 04:31:35;;;;;;;;;;;;;;;;;;5075538;28;836;-73
2021/01/23 04:34:00;;;;;;;;;;;;;;;;;;5075937;28;984;-71
2021/01/23 04:36:26;;;;;;;;;;;;;;;;;;5075759;28;1329;-74
2021/01/23 04:38:51;;;;;;;;;;;;;;;;;;5074448;28;1507;-74
2021/01/23 04:41:16;;;;;;;;;;;;;;;;;;5075516;28;1984;-72
2021/01/23 04:43:43;;;;;;;;;;;;;;;;;;5074242;28;1525;-72
2021/01/23 04:46:08;;;;;;;;;;;;;;;;;;5074025;28;1388;-74
2021/01/23 04:48:35;;;;;;;;;;;;;;;;;;5075691;28;888;-74
2021/01/23 04:51:00;;;;;;;;;;;;;;;;;;5075504;28;1343;-77
2021/01/23 04:53:25;;;;;;;;;;;;;;;;;;5074171;28;1349;-74
2021/01/23 04:55:50;;;;;;;;;;;;;;;;;;5075242;28;1317;-76
2021/01/23 04:58:16;;;;;;;;;;;;;;;;;;5075408;28;876;-73
2021/01/23 05:00:41;;;;;;;;;;;;;;;;;;5073851;28;1962;-73
2021/01/23 05:03:06;;;;;;;;;;;;;;;;;;5074119;28;1206;-74
2021/01/23 05:05:32;;;;;;;;;;;;;;;;;;5075173;28;1309;-73
2021/01/23 05:08:11;;;;;;;;;;;;;;;;;;5074243;28;1175;-74
2021/01/23 05:10:36;;;;;;;;;;;;;;;;;;5074771;28;798;-72
2021/01/23 05:13:11;;;;;;;;;;;;;;;;;;5073971;28;1353;-77
2021/01/23 05:15:36;;;;;;;;;;;;;;;;;;5073638;28;1376;-73
2021/01/23 05:18:04;;;;;;;;;;;;;;;;;;5074832;28;892;-75
2021/01/23 05:20:30;;;;;;;;;;;;;;;;;;5074732;28;1897;-78
2021/01/23 05:22:56;;;;;;;;;;;;;;;;;;5074839;28;964;-73
2021/01/23 05:25:25;;;;;;;;;;;;;;;;;;5074844;28;1396;-77
2021/01/23 05:27:50;;;;;;;;;;;;;;;;;;5073644;28;1416;-75
2021/01/23 05:30:15;;;;;;;;;;;;;;;;;;5074638;28;1172;-72
2021/01/23 05:32:41;;;;;;;;;;;;;;;;;;5073756;28;1700;-76
2021/01/23 05:35:15;;;;;;;;;;;;;;;;;;5073623;28;1270;-73
2021/01/23 05:37:41;;;;;;;;;;;;;;;;;;5073560;28;825;-76
2021/01/23 05:40:06;;;;;;;;;;;;;;;;;;5074488;28;1898;-77
2021/01/23 05:42:40;;;;;;;;;;;;;;;;;;5074637;28;1153;-75
2021/01/23 05:45:06;;;;;;;;;;;;;;;;;;5074189;28;1393;-72
2021/01/23 05:47:31;;;;;;;;;;;;;;;;;;5074760;28;821;-75
2021/01/23 05:49:56;;;;;;;;;;;;;;;;;;5074544;28;848;-76
2021/01/23 05:52:22;;;;;;;;;;;;;;;;;;5073812;28;826;-73
2021/01/23 05:54:47;;;;;;;;;;;;;;;;;;5074268;28;1384;-74
2021/01/23 05:57:12;;;;;;;;;;;;;;;;;;5074026;28;892;-70
2021/01/23 05:59:41;;;;;;;;;;;;;;;;;;5073753;28;1890;-72
2021/01/23 06:02:11;;;;;;;;;;;;;;;;;;5073337;28;1462;-73
2021/01/23 06:04:42;;;;;;;;;;;;;;;;;;5073122;28;1839;-71
2021/01/23 06:07:07;;;;;;;;;;;;;;;;;;5074296;28;849;-70
2021/01/23 06:09:37;;;;;;;;;;;;;;;;;;5073163;28;1497;-73
2021/01/23 06:12:02;;;;;;;;;;;;;;;;;;5073344;28;1369;-70
2021/01/23 06:14:35;;;;;;;;;;;;;;;;;;5073031;28;1541;-72
2021/01/23 06:17:00;;;;;;;;;;;;;;;;;;5073715;28;890;-69
2021/01/23 06:19:25;;;;;;;;;;;;;;;;;;5073950;28;1117;-70
2021/01/23 06:21:52;;;;;;;;;;;;;;;;;;5072679;28;1894;-71
2021/01/23 06:24:18;;;;;;;;;;;;;;;;;;5074329;28;891;-72
2021/01/23 06:26:53;;;;;;;;;;;;;;;;;;5074270;28;1353;-70
2021/01/23 06:29:31;;;;;;;;;;;;;;;;;;5074344;28;875;-70
2021/01/23 06:31:56;;;;;;;;;;;;;;;;;;5073814;28;809;-69
2021/01/23 06:34:23;;;;;;;;;;;;;;;;;;5073121;28;1108;-73
2021/01/23 06:36:48;;;;;;;;;;;;;;;;;;5074159;28;1396;-71
2021/01/23 06:39:14;;;;;;;;;;;;;;;;;;5072760;28;1323;-70
2021/01/23 06:41:39;;;;;;;;;;;;;;;;;;5073788;28;1963;-70
2021/01/23 06:44:07;;;;;;;;;;;;;;;;;;5072483;28;1202;-71
2021/01/23 06:46:33;;;;;;;;;;;;;;;;;;5074078;28;1408;-70
2021/01/23 06:49:05;;;;;;;;;;;;;;;;;;5074092;28;858;-71
2021/01/23 06:51:31;;;;;;;;;;;;;;;;;;5072434;28;774;-70
2021/01/23 06:54:29;;;;;;;;;;;;;;;;;;5074002;28;888;-72
2021/01/23 06:56:55;;;;;;;;;;;;;;;;;;5072657;28;1569;-71
2021/01/23 06:59:21;;;;;;;;;;;;;;;;;;5072365;28;1335;-70
2021/01/23 07:01:54;;;;;;;;;;;;;;;;;;5073689;28;1906;-72
2021/01/23 07:04:19;;;;;;;;;;;;;;;;;;5072518;28;1283;-72
2021/01/23 07:06:45;;;;;;;;;;;;;;;;;;5073863;28;1396;-73
2021/01/23 07:09:10;;;;;;;;;;;;;;;;;;5074370;28;813;-70
2021/01/23 07:11:38;;;;;;;;;;;;;;;;;;5077208;28;1046;-71
2021/01/23 07:14:05;;;;;;;;;;;;;;;;;;5077271;28;888;-72
2021/01/23 07:16:32;;;;;;;;;;;;;;;;;;5077279;28;1320;-71
2021/01/23 07:18:59;;;;;;;;;;;;;;;;;;5076160;28;1206;-69
2021/01/23 07:21:25;;;;;;;;;;;;;;;;;;5076803;28;1902;-70
2021/01/23 07:23:52;;;;;;;;;;;;;;;;;;5075818;28;1613;-70
2021/01/23 07:26:17;;;;;;;;;;;;;;;;;;5075702;28;2299;-72
2021/01/23 07:28:49;;;;;;;;;;;;;;;;;;5075603;28;1390;-69
2021/01/23 07:31:28;;;;;;;;;;;;;;;;;;5075583;28;805;-70
2021/01/23 07:33:54;;;;;;;;;;;;;;;;;;5076948;28;884;-70
2021/01/23 07:36:29;;;;;;;;;;;;;;;;;;5077041;28;1416;-70
2021/01/23 07:38:54;;;;;;;;;;;;;;;;;;5075485;28;1237;-71
2021/01/23 07:41:20;;;;;;;;;;;;;;;;;;5075313;28;2885;-70
2021/01/23 07:43:47;;;;;;;;;;;;;;;;;;5076702;28;888;-71
2021/01/23 07:46:12;;;;;;;;;;;;;;;;;;5076674;28;1329;-71
2021/01/23 07:48:41;;;;;;;;;;;;;;;;;;5076548;28;817;-71
2021/01/23 07:51:06;;;;;;;;;;;;;;;;;;5076508;28;924;-69
2021/01/23 07:53:31;;;;;;;;;;;;;;;;;;5076702;28;880;-70
2021/01/23 07:55:57;;;;;;;;;;;;;;;;;;5075272;28;1489;-71
2021/01/23 07:58:22;;;;;;;;;;;;;;;;;;5076247;28;875;-70
2021/01/23 08:00:48;;;;;;;;;;;;;;;;;;5074783;28;1953;-72
2021/01/23 08:03:13;;;;;;;;;;;;;;;;;;5076705;28;868;-69
2021/01/23 08:05:42;;;;;;;;;;;;;;;;;;5076307;28;1416;-71
2021/01/23 08:08:07;;;;;;;;;;;;;;;;;;5075315;28;952;-72
2021/01/23 08:10:36;;;;;;;;;;;;;;;;;;5075190;28;1322;-72
2021/01/23 08:13:02;;;;;;;;;;;;;;;;;;5075961;28;845;-69
2021/01/23 08:15:28;;;;;;;;;;;;;;;;;;5074859;28;1444;-69
2021/01/23 08:17:54;;;;;;;;;;;;;;;;;;5075703;28;936;-69
2021/01/23 08:20:30;;;;;;;;;;;;;;;;;;5075174;28;1965;-69
2021/01/23 08:23:00;;;;;;;;;;;;;;;;;;5075651;28;985;-71
2021/01/23 08:25:26;;;;;;;;;;;;;;;;;;5074177;28;1361;-70
2021/01/23 08:27:52;;;;;;;;;;;;;;;;;;5075645;28;782;-71
2021/01/23 08:30:18;;;;;;;;;;;;;;;;;;5075502;28;841;-71
2021/01/23 08:32:43;;;;;;;;;;;;;;;;;;5075907;28;972;-71
2021/01/23 08:35:08;;;;;;;;;;;;;;;;;;5075658;28;1257;-69
2021/01/23 08:37:34;;;;;;;;;;;;;;;;;;5075686;28;855;-71
2021/01/23 08:39:59;;;;;;;;;;;;;;;;;;5075448;28;1890;-69
2021/01/23 08:42:24;;;;;;;;;;;;;;;;;;5075477;28;837;-71
2021/01/23 08:44:50;;;;;;;;;;;;;;;;;;5074397;28;1310;-69
2021/01/23 08:47:15;;;;;;;;;;;;;;;;;;5075418;28;972;-71
2021/01/23 08:49:41;;;;;;;;;;;;;;;;;;5074376;28;991;-68
2021/01/23 08:52:06;;;;;;;;;;;;;;;;;;5075462;28;936;-69
2021/01/23 08:54:31;;;;;;;;;;;;;;;;;;5075023;28;1309;-68
2021/01/23 08:56:56;;;;;;;;;;;;;;;;;;5074032;28;1158;-72
2021/01/23 08:59:21;;;;;;;;;;;;;;;;;;5075348;28;1169;-68
2021/01/23 09:01:47;;;;;;;;;;;;;;;;;;5075005;28;1864;-72
2021/01/23 09:04:12;;;;;;;;;;;;;;;;;;5075255;28;869;-71
2021/01/23 09:06:37;;;;;;;;;;;;;;;;;;5074922;28;1281;-71
2021/01/23 09:09:03;;;;;;;;;;;;;;;;;;5073997;28;1335;-69
2021/01/23 09:11:29;;;;;;;;;;;;;;;;;;5073628;28;1393;-69
2021/01/23 09:13:55;;;;;;;;;;;;;;;;;;5075084;28;951;-74
2021/01/23 09:16:20;;;;;;;;;;;;;;;;;;5073578;28;1344;-69
2021/01/23 09:18:45;;;;;;;;;;;;;;;;;;5074917;28;996;-71
2021/01/23 09:21:10;;;;;;;;;;;;;;;;;;5074473;28;1897;-68
2021/01/23 09:23:36;;;;;;;;;;;;;;;;;;5073577;28;2814;-71
2021/01/23 09:26:04;;;;;;;;;;;;;;;;;;5074773;28;1401;-70
2021/01/23 09:28:29;;;;;;;;;;;;;;;;;;5074872;28;841;-68
2021/01/23 09:30:55;;;;;;;;;;;;;;;;;;5073309;28;1388;-71
2021/01/23 09:33:20;;;;;;;;;;;;;;;;;;5074497;28;920;-72
2021/01/23 09:35:45;;;;;;;;;;;;;;;;;;5074772;28;1317;-70
2021/01/23 09:38:10;;;;;;;;;;;;;;;;;;5074724;28;1034;-73
2021/01/23 09:40:35;;;;;;;;;;;;;;;;;;5074556;28;1965;-68
2021/01/23 09:43:01;;;;;;;;;;;;;;;;;;5073481;28;892;-74
2021/01/23 09:45:26;;;;;;;;;;;;;;;;;;5073422;28;1420;-72
2021/01/23 09:47:51;;;;;;;;;;;;;;;;;;5074487;28;900;-70
2021/01/23 09:50:21;;;;;;;;;;;;;;;;;;5073153;28;1386;-73
2021/01/23 09:52:46;;;;;;;;;;;;;;;;;;5074558;28;844;-71
2021/01/23 09:55:12;;;;;;;;;;;;;;;;;;5073263;28;1353;-73
2021/01/23 09:57:37;;;;;;;;;;;;;;;;;;5074812;28;816;-73
2021/01/23 10:00:04;;;;;;;;;;;;;;;;;;5074391;28;1894;-73
2021/01/23 10:02:33;;;;;;;;;;;;;;;;;;5073228;28;1205;-70
2021/01/23 10:04:58;;;;;;;;;;;;;;;;;;5074367;28;1309;-72
2021/01/23 10:07:23;;;;;;;;;;;;;;;;;;5074453;28;822;-70
2021/01/23 10:09:49;;;;;;;;;;;;;;;;;;5072483;28;759;-74
2021/01/23 10:12:14;;;;;;;;;;;;;;;;;;5073027;28;786;-72
2021/01/23 10:14:39;;;;;;;;;;;;;;;;;;5074065;28;1290;-72
2021/01/23 10:17:05;;;;;;;;;;;;;;;;;;5072858;28;1229;-72
2021/01/23 10:19:30;;;;;;;;;;;;;;;;;;5074281;28;884;-75
2021/01/23 10:21:57;;;;;;;;;;;;;;;;;;5072547;28;1965;-71
2021/01/23 10:24:23;;;;;;;;;;;;;;;;;;5074154;28;841;-71
2021/01/23 10:26:48;;;;;;;;;;;;;;;;;;5074168;28;1325;-73
2021/01/23 10:29:13;;;;;;;;;;;;;;;;;;5074174;28;805;-76
2021/01/23 10:31:39;;;;;;;;;;;;;;;;;;5074096;28;858;-72
2021/01/23 10:34:05;;;;;;;;;;;;;;;;;;5074174;28;943;-73
2021/01/23 10:36:30;;;;;;;;;;;;;;;;;;5073820;28;1409;-76
2021/01/23 10:38:55;;;;;;;;;;;;;;;;;;5072833;28;1476;-76
2021/01/23 10:41:20;;;;;;;;;;;;;;;;;;5073799;28;1898;-75
2021/01/23 10:43:47;;;;;;;;;;;;;;;;;;5074322;28;936;-74
2021/01/23 10:46:12;;;;;;;;;;;;;;;;;;5076331;28;1436;-72
2021/01/23 10:48:37;;;;;;;;;;;;;;;;;;5077571;28;978;-68
2021/01/23 10:51:03;;;;;;;;;;;;;;;;;;5076343;28;1310;-73
2021/01/23 10:53:28;;;;;;;;;;;;;;;;;;5077774;28;916;-72
2021/01/23 10:55:53;;;;;;;;;;;;;;;;;;5077692;28;1318;-72
2021/01/23 10:58:18;;;;;;;;;;;;;;;;;;5077690;28;913;-71
2021/01/23 11:00:44;;;;;;;;;;;;;;;;;;5075915;28;1898;-72
2021/01/23 11:03:09;;;;;;;;;;;;;;;;;;5075844;28;2206;-73
2021/01/23 11:05:34;;;;;;;;;;;;;;;;;;5076176;28;1325;-71
2021/01/23 11:07:59;;;;;;;;;;;;;;;;;;5073581;28;2000;-71
2021/01/23 11:10:25;;;;;;;;;;;;;;;;;;5056352;28;1199;-72
2021/01/23 11:12:50;;;;;;;;;;;;;;;;;;5056154;28;943;-71
2021/01/23 11:15:16;;;;;;;;;;;;;;;;;;5057079;28;1278;-73
2021/01/23 11:17:41;;;;;;;;;;;;;;;;;;5068228;28;1526;-72
2021/01/23 11:20:07;;;;;;;;;;;;;;;;;;5073291;28;1972;-72
2021/01/23 11:22:32;;;;;;;;;;;;;;;;;;5067325;28;1742;-72
2021/01/23 11:24:57;;;;;;;;;;;;;;;;;;5066598;28;1747;-69
2021/01/23 11:27:22;;;;;;;;;;;;;;;;;;5064507;28;1678;-72
2021/01/23 11:29:48;;;;;;;;;;;;;;;;;;5064727;28;1548;-72
2021/01/23 11:32:13;;;;;;;;;;;;;;;;;;5067434;28;1726;-72
2021/01/23 11:34:38;;;;;;;;;;;;;;;;;;5065529;28;1806;-71
2021/01/23 11:37:03;;;;;;;;;;;;;;;;;;5063138;28;1688;-74
2021/01/23 11:39:29;;;;;;;;;;;;;;;;;;5056852;28;913;-72
2021/01/23 11:41:54;;;;;;;;;;;;;;;;;;5056566;28;1959;-72
2021/01/23 11:44:19;;;;;;;;;;;;;;;;;;5066722;28;1489;-71
2021/01/23 11:46:44;;;;;;;;;;;;;;;;;;5065179;28;1512;-73
2021/01/23 11:49:10;;;;;;;;;;;;;;;;;;5067172;28;1397;-73
2021/01/23 11:51:35;;;;;;;;;;;;;;;;;;5056238;28;822;-73
2021/01/23 11:54:00;;;;;;;;;;;;;;;;;;5055255;28;845;-70
2021/01/23 11:56:27;;;;;;;;;;;;;;;;;;5055132;28;1310;-74
2021/01/23 11:58:52;;;;;;;;;;;;;;;;;;5055133;28;814;-74
2021/01/23 12:01:17;;;;;;;;;;;;;;;;;;5056242;28;1959;-74
2021/01/23 12:03:42;;;;;;;;;;;;;;;;;;5055034;28;1342;-74
2021/01/23 12:06:08;;;;;;;;;;;;;;;;;;5055069;28;1362;-71
2021/01/23 12:08:33;;;;;;;;;;;;;;;;;;5055990;28;984;-73
2021/01/23 12:10:59;;;;;;;;;;;;;;;;;;5056152;28;1022;-75
2021/01/23 12:13:24;;;;;;;;;;;;;;;;;;5054898;28;1348;-72
2021/01/23 12:15:50;;;;;;;;;;;;;;;;;;5056031;28;1305;-70
2021/01/23 12:18:15;;;;;;;;;;;;;;;;;;5056000;28;972;-72
2021/01/23 12:20:41;;;;;;;;;;;;;;;;;;5055556;28;1960;-71
2021/01/23 12:23:06;;;;;;;;;;;;;;;;;;5054807;28;1358;-74
2021/01/23 12:25:31;;;;;;;;;;;;;;;;;;5055919;28;1416;-71
2021/01/23 12:27:57;;;;;;;;;;;;;;;;;;5056154;28;864;-73
2021/01/23 12:30:22;;;;;;;;;;;;;;;;;;5055795;28;869;-74
2021/01/23 12:32:47;;;;;;;;;;;;;;;;;;5055764;28;928;-74
2021/01/23 12:35:13;;;;;;;;;;;;;;;;;;5055791;28;1306;-74
2021/01/23 12:37:39;;;;;;;;;;;;;;;;;;5055647;28;901;-74
2021/01/23 12:40:05;;;;;;;;;;;;;;;;;;5054087;28;1890;-74
2021/01/23 12:42:30;;;;;;;;;;;;;;;;;;5054546;28;1616;-74
2021/01/23 12:44:56;;;;;;;;;;;;;;;;;;5055386;28;1369;-74
2021/01/23 12:47:21;;;;;;;;;;;;;;;;;;5054299;28;1365;-73
2021/01/23 12:49:46;;;;;;;;;;;;;;;;;;5055354;28;948;-74
2021/01/23 12:52:12;;;;;;;;;;;;;;;;;;5054075;28;768;-74
2021/01/23 12:54:37;;;;;;;;;;;;;;;;;;5055088;28;1404;-74
2021/01/23 12:57:02;;;;;;;;;;;;;;;;;;5055411;28;794;-74
2021/01/23 12:59:27;;;;;;;;;;;;;;;;;;5054477;28;853;-74
2021/01/23 13:01:53;;;;;;;;;;;;;;;;;;5053412;28;1894;-74
2021/01/23 13:04:18;;;;;;;;;;;;;;;;;;5053987;28;1202;-74
2021/01/23 13:06:43;;;;;;;;;;;;;;;;;;5054841;28;1345;-74
2021/01/23 13:09:08;;;;;;;;;;;;;;;;;;5055381;28;818;-74
2021/01/23 13:11:34;;;;;;;;;;;;;;;;;;5054797;28;957;-74
2021/01/23 13:14:00;;;;;;;;;;;;;;;;;;5055131;28;786;-74
2021/01/23 13:16:27;;;;;;;;;;;;;;;;;;5053357;28;1357;-74
2021/01/23 13:18:52;;;;;;;;;;;;;;;;;;5055015;28;853;-74
2021/01/23 13:21:18;;;;;;;;;;;;;;;;;;5053219;28;1990;-72
2021/01/23 13:23:43;;;;;;;;;;;;;;;;;;5053527;28;1216;-72
2021/01/23 13:26:11;;;;;;;;;;;;;;;;;;5054393;28;1321;-72
2021/01/23 13:28:37;;;;;;;;;;;;;;;;;;5053863;28;1222;-72
2021/01/23 13:31:03;;;;;;;;;;;;;;;;;;5054547;28;848;-72
2021/01/23 13:33:29;;;;;;;;;;;;;;;;;;5053492;28;798;-74
2021/01/23 13:35:54;;;;;;;;;;;;;;;;;;5054577;28;1380;-74
2021/01/23 13:38:19;;;;;;;;;;;;;;;;;;5054761;28;855;-74
2021/01/23 13:40:45;;;;;;;;;;;;;;;;;;5054442;28;1878;-75
2021/01/23 13:43:10;;;;;;;;;;;;;;;;;;5053326;28;924;-75
2021/01/23 13:45:36;;;;;;;;;;;;;;;;;;5054412;28;1345;-75
2021/01/23 13:48:02;;;;;;;;;;;;;;;;;;5053119;28;1901;-75
2021/01/23 13:50:27;;;;;;;;;;;;;;;;;;5054538;28;830;-75
2021/01/23 13:52:53;;;;;;;;;;;;;;;;;;5054457;28;878;-75
2021/01/23 13:55:18;;;;;;;;;;;;;;;;;;5054719;28;1444;-74
2021/01/23 13:57:43;;;;;;;;;;;;;;;;;;5052863;28;1314;-74
2021/01/23 14:00:08;;;;;;;;;;;;;;;;;;5053158;28;1914;-75
2021/01/23 14:02:34;;;;;;;;;;;;;;;;;;5054436;28;837;-75
2021/01/23 14:04:59;;;;;;;;;;;;;;;;;;5052888;28;1459;-75
2021/01/23 14:07:24;;;;;;;;;;;;;;;;;;5054435;28;910;-75
2021/01/23 14:09:49;;;;;;;;;;;;;;;;;;5052792;28;1070;-75
2021/01/23 14:12:15;;;;;;;;;;;;;;;;;;5054432;28;912;-75
2021/01/23 14:14:40;;;;;;;;;;;;;;;;;;5052978;28;1655;-75
2021/01/23 14:17:05;;;;;;;;;;;;;;;;;;5054235;28;850;-75
2021/01/23 14:19:31;;;;;;;;;;;;;;;;;;5054155;28;885;-75
2021/01/23 14:21:56;;;;;;;;;;;;;;;;;;5058282;28;1909;-75
2021/01/23 14:24:21;;;;;;;;;;;;;;;;;;5056925;28;1683;-75
2021/01/23 14:26:47;;;;;;;;;;;;;;;;;;5058161;28;1326;-75
2021/01/23 14:29:13;;;;;;;;;;;;;;;;;;5058002;28;894;-75
2021/01/23 14:31:38;;;;;;;;;;;;;;;;;;5057996;28;802;-75
2021/01/23 14:34:03;;;;;;;;;;;;;;;;;;5058079;28;940;-75
2021/01/23 14:36:28;;;;;;;;;;;;;;;;;;5058042;28;1301;-75
2021/01/23 14:38:54;;;;;;;;;;;;;;;;;;5058003;28;881;-75
2021/01/23 14:41:19;;;;;;;;;;;;;;;;;;5057489;28;1898;-75
2021/01/23 14:43:47;;;;;;;;;;;;;;;;;;5057770;28;924;-75
2021/01/23 14:46:13;;;;;;;;;;;;;;;;;;5057749;28;1322;-75
2021/01/23 14:48:38;;;;;;;;;;;;;;;;;;5057734;28;845;-75
2021/01/23 14:51:03;;;;;;;;;;;;;;;;;;5057853;28;877;-75
2021/01/23 14:53:29;;;;;;;;;;;;;;;;;;5056734;28;1168;-75
2021/01/23 14:55:54;;;;;;;;;;;;;;;;;;5057481;28;1517;-74
2021/01/23 14:58:19;;;;;;;;;;;;;;;;;;5056578;28;810;-74
2021/01/23 15:00:45;;;;;;;;;;;;;;;;;;5057067;28;1951;-75
2021/01/23 15:03:10;;;;;;;;;;;;;;;;;;5057778;28;870;-75
2021/01/23 15:05:36;;;;;;;;;;;;;;;;;;5056112;28;1302;-74
2021/01/23 15:08:01;;;;;;;;;;;;;;;;;;5057431;28;869;-75
2021/01/23 15:10:26;;;;;;;;;;;;;;;;;;5057257;28;915;-75
2021/01/23 15:12:51;;;;;;;;;;;;;;;;;;5057645;28;825;-75
2021/01/23 15:15:17;;;;;;;;;;;;;;;;;;5056973;28;1298;-75
2021/01/23 15:17:42;;;;;;;;;;;;;;;;;;5057214;28;877;-75
2021/01/23 15:20:07;;;;;;;;;;;;;;;;;;5056923;28;2065;-74
2021/01/23 15:22:34;;;;;;;;;;;;;;;;;;5056938;28;999;-74
2021/01/23 15:25:00;;;;;;;;;;;;;;;;;;5055707;28;1393;-75
2021/01/23 15:27:25;;;;;;;;;;;;;;;;;;5055714;28;1202;-75
2021/01/23 15:29:50;;;;;;;;;;;;;;;;;;5055848;28;870;-74
2021/01/23 15:32:16;;;;;;;;;;;;;;;;;;5057053;28;809;-74
2021/01/23 15:34:41;;;;;;;;;;;;;;;;;;5055879;28;1488;-74
2021/01/23 15:37:06;;;;;;;;;;;;;;;;;;5057004;28;829;-74
2021/01/23 15:39:31;;;;;;;;;;;;;;;;;;5056525;28;964;-74
2021/01/23 15:41:57;;;;;;;;;;;;;;;;;;5056567;28;1949;-74
2021/01/23 15:44:22;;;;;;;;;;;;;;;;;;5056921;28;833;-74
2021/01/23 15:46:47;;;;;;;;;;;;;;;;;;5055042;28;1574;-74
2021/01/23 15:49:12;;;;;;;;;;;;;;;;;;5056688;28;908;-74
2021/01/23 15:51:39;;;;;;;;;;;;;;;;;;5056358;28;980;-74
2021/01/23 15:54:04;;;;;;;;;;;;;;;;;;5056499;28;829;-74
2021/01/23 15:56:29;;;;;;;;;;;;;;;;;;5056499;28;1305;-74
2021/01/23 15:58:55;;;;;;;;;;;;;;;;;;5055298;28;846;-74
2021/01/23 16:01:20;;;;;;;;;;;;;;;;;;5056068;28;1951;-74
2021/01/23 16:03:46;;;;;;;;;;;;;;;;;;5056314;28;901;-74
2021/01/23 16:06:13;;;;;;;;;;;;;;;;;;5056439;28;1384;-74
2021/01/23 16:08:38;;;;;;;;;;;;;;;;;;5055280;28;830;-74
2021/01/23 16:11:03;;;;;;;;;;;;;;;;;;5054997;28;1257;-74
2021/01/23 16:13:29;;;;;;;;;;;;;;;;;;5056281;28;853;-74
2021/01/23 16:15:54;;;;;;;;;;;;;;;;;;5054875;28;1432;-74
2021/01/23 16:18:19;;;;;;;;;;;;;;;;;;5054736;28;1202;-74
2021/01/23 16:20:44;;;;;;;;;;;;;;;;;;5055846;28;1955;-74
2021/01/23 16:23:10;;;;;;;;;;;;;;;;;;5054796;28;901;-75
2021/01/23 16:25:36;;;;;;;;;;;;;;;;;;5054492;28;1439;-74
2021/01/23 16:28:02;;;;;;;;;;;;;;;;;;5054746;28;840;-74
2021/01/23 16:30:28;;;;;;;;;;;;;;;;;;5055618;28;849;-74
2021/01/23 16:32:53;;;;;;;;;;;;;;;;;;5055868;28;822;-75
2021/01/23 16:35:19;;;;;;;;;;;;;;;;;;5055810;28;1322;-74
2021/01/23 16:37:44;;;;;;;;;;;;;;;;;;5055682;28;787;-74
2021/01/23 16:40:10;;;;;;;;;;;;;;;;;;5054125;28;1893;-74
2021/01/23 16:42:36;;;;;;;;;;;;;;;;;;5054952;28;1206;-74
2021/01/23 16:45:01;;;;;;;;;;;;;;;;;;5055690;28;1436;-74
2021/01/23 16:47:26;;;;;;;;;;;;;;;;;;5055597;28;917;-74
2021/01/23 16:49:52;;;;;;;;;;;;;;;;;;5055415;28;864;-74
2021/01/23 16:52:17;;;;;;;;;;;;;;;;;;5054468;28;1426;-74
2021/01/23 16:54:43;;;;;;;;;;;;;;;;;;5055215;28;1290;-74
2021/01/23 16:57:08;;;;;;;;;;;;;;;;;;5055471;28;825;-74
2021/01/23 16:59:35;;;;;;;;;;;;;;;;;;5055500;28;909;-74
2021/01/23 17:02:00;;;;;;;;;;;;;;;;;;5053911;28;1953;-74